sensor_id;sensor_type;location;lat;lon;timestamp;temperature;humidity
51982;DHT22;37998;53.416;6.730;2022-10-16T00:01:58;12.70;99.90
51982;DHT22;37998;53.416;6.730;2022-10-16T00:04:24;12.80;99.90
51982;DHT22;37998;53.416;6.730;2022-10-16T00:06:50;12.70;99.90
51982;DHT22;37998;53.416;6.730;2022-10-16T00:09:15;12.80;99.90
51982;DHT22;37998;53.416;6.730;2022-10-16T00:11:41;12.80;99.90
51982;DHT22;37998;53.416;6.730;2022-10-16T00:14:11;12.80;99.90
51982;DHT22;37998;53.416;6.730;2022-10-16T00:16:37;12.80;99.90
51982;DHT22;37998;53.416;6.730;2022-10-16T00:19:03;12.90;99.90
51982;DHT22;37998;53.416;6.730;2022-10-16T00:21:30;12.80;99.90
51982;DHT22;37998;53.416;6.730;2022-10-16T00:24:07;12.80;99.90
51982;DHT22;37998;53.416;6.730;2022-10-16T00:26:35;12.80;99.90
51982;DHT22;37998;53.416;6.730;2022-10-16T00:29:02;12.80;99.90
51982;DHT22;37998;53.416;6.730;2022-10-16T00:31:27;12.80;99.90
51982;DHT22;37998;53.416;6.730;2022-10-16T00:33:53;12.80;99.90
51982;DHT22;37998;53.416;6.730;2022-10-16T00:36:21;12.70;99.90
51982;DHT22;37998;53.416;6.730;2022-10-16T00:38:50;12.80;99.90
51982;DHT22;37998;53.416;6.730;2022-10-16T00:41:18;12.70;99.90
51982;DHT22;37998;53.416;6.730;2022-10-16T00:43:46;12.70;99.90
51982;DHT22;37998;53.416;6.730;2022-10-16T00:46:24;12.70;99.90
51982;DHT22;37998;53.416;6.730;2022-10-16T00:49:04;12.70;99.90
51982;DHT22;37998;53.416;6.730;2022-10-16T00:51:39;12.80;99.90
51982;DHT22;37998;53.416;6.730;2022-10-16T00:54:09;12.70;99.90
51982;DHT22;37998;53.416;6.730;2022-10-16T00:56:35;12.70;99.90
51982;DHT22;37998;53.416;6.730;2022-10-16T00:59:07;12.70;99.90
51982;DHT22;37998;53.416;6.730;2022-10-16T01:01:35;12.70;99.90
51982;DHT22;37998;53.416;6.730;2022-10-16T01:04:01;12.70;99.90
51982;DHT22;37998;53.416;6.730;2022-10-16T01:06:38;12.60;99.90
51982;DHT22;37998;53.416;6.730;2022-10-16T01:09:16;12.60;99.90
51982;DHT22;37998;53.416;6.730;2022-10-16T01:11:45;12.70;99.90
51982;DHT22;37998;53.416;6.730;2022-10-16T01:17:09;12.60;99.90
51982;DHT22;37998;53.416;6.730;2022-10-16T01:25:23;12.50;99.90
51982;DHT22;37998;53.416;6.730;2022-10-16T01:27:50;12.60;99.90
51982;DHT22;37998;53.416;6.730;2022-10-16T01:30:23;12.50;99.90
51982;DHT22;37998;53.416;6.730;2022-10-16T01:32:55;12.50;99.90
51982;DHT22;37998;53.416;6.730;2022-10-16T01:38:31;12.40;99.90
51982;DHT22;37998;53.416;6.730;2022-10-16T01:41:24;12.50;99.90
51982;DHT22;37998;53.416;6.730;2022-10-16T01:43:57;12.40;99.90
51982;DHT22;37998;53.416;6.730;2022-10-16T01:46:24;12.50;99.90
51982;DHT22;37998;53.416;6.730;2022-10-16T01:48:52;12.40;99.90
51982;DHT22;37998;53.416;6.730;2022-10-16T01:51:20;12.50;99.90
51982;DHT22;37998;53.416;6.730;2022-10-16T01:53:51;12.50;99.90
51982;DHT22;37998;53.416;6.730;2022-10-16T01:56:18;12.60;99.90
51982;DHT22;37998;53.416;6.730;2022-10-16T01:58:54;12.50;99.90
51982;DHT22;37998;53.416;6.730;2022-10-16T02:01:23;12.50;99.90
51982;DHT22;37998;53.416;6.730;2022-10-16T02:03:54;12.60;99.90
51982;DHT22;37998;53.416;6.730;2022-10-16T02:06:20;12.60;99.90
51982;DHT22;37998;53.416;6.730;2022-10-16T02:08:46;12.60;99.90
51982;DHT22;37998;53.416;6.730;2022-10-16T02:11:12;12.70;99.90
51982;DHT22;37998;53.416;6.730;2022-10-16T02:13:43;12.70;99.90
51982;DHT22;37998;53.416;6.730;2022-10-16T02:16:11;12.70;99.90
51982;DHT22;37998;53.416;6.730;2022-10-16T02:18:39;12.70;99.90
51982;DHT22;37998;53.416;6.730;2022-10-16T02:21:19;12.80;99.90
51982;DHT22;37998;53.416;6.730;2022-10-16T02:26:51;12.80;99.90
51982;DHT22;37998;53.416;6.730;2022-10-16T02:29:17;12.80;99.90
51982;DHT22;37998;53.416;6.730;2022-10-16T02:31:48;12.80;99.90
51982;DHT22;37998;53.416;6.730;2022-10-16T02:34:16;12.80;99.90
51982;DHT22;37998;53.416;6.730;2022-10-16T02:36:44;12.80;99.90
51982;DHT22;37998;53.416;6.730;2022-10-16T02:39:11;12.80;99.90
51982;DHT22;37998;53.416;6.730;2022-10-16T02:41:37;13.00;99.90
51982;DHT22;37998;53.416;6.730;2022-10-16T02:44:03;12.90;99.90
51982;DHT22;37998;53.416;6.730;2022-10-16T02:46:29;12.80;99.90
51982;DHT22;37998;53.416;6.730;2022-10-16T02:48:55;12.80;99.90
51982;DHT22;37998;53.416;6.730;2022-10-16T02:51:20;12.90;99.90
51982;DHT22;37998;53.416;6.730;2022-10-16T02:53:46;12.80;99.90
51982;DHT22;37998;53.416;6.730;2022-10-16T02:56:12;12.80;99.90
51982;DHT22;37998;53.416;6.730;2022-10-16T02:58:37;12.80;99.90
51982;DHT22;37998;53.416;6.730;2022-10-16T03:01:03;12.80;99.90
51982;DHT22;37998;53.416;6.730;2022-10-16T03:03:29;12.80;99.90
51982;DHT22;37998;53.416;6.730;2022-10-16T03:05:54;12.80;99.90
51982;DHT22;37998;53.416;6.730;2022-10-16T03:08:20;12.80;99.90
51982;DHT22;37998;53.416;6.730;2022-10-16T03:10:49;12.80;99.90
51982;DHT22;37998;53.416;6.730;2022-10-16T03:13:15;12.80;99.90
51982;DHT22;37998;53.416;6.730;2022-10-16T03:15:40;12.80;99.90
51982;DHT22;37998;53.416;6.730;2022-10-16T03:18:06;12.90;99.90
51982;DHT22;37998;53.416;6.730;2022-10-16T03:20:32;12.80;99.90
51982;DHT22;37998;53.416;6.730;2022-10-16T03:22:57;12.80;99.90
51982;DHT22;37998;53.416;6.730;2022-10-16T03:25:23;12.80;99.90
51982;DHT22;37998;53.416;6.730;2022-10-16T03:27:49;12.80;99.90
51982;DHT22;37998;53.416;6.730;2022-10-16T03:30:15;12.80;99.90
51982;DHT22;37998;53.416;6.730;2022-10-16T03:32:43;12.80;99.90
51982;DHT22;37998;53.416;6.730;2022-10-16T03:35:09;12.80;99.90
51982;DHT22;37998;53.416;6.730;2022-10-16T03:37:34;12.80;99.90
51982;DHT22;37998;53.416;6.730;2022-10-16T03:40:00;12.80;99.90
51982;DHT22;37998;53.416;6.730;2022-10-16T03:42:26;12.70;99.90
51982;DHT22;37998;53.416;6.730;2022-10-16T03:44:51;12.70;99.90
51982;DHT22;37998;53.416;6.730;2022-10-16T03:47:17;12.70;99.90
51982;DHT22;37998;53.416;6.730;2022-10-16T03:49:47;12.80;99.90
51982;DHT22;37998;53.416;6.730;2022-10-16T03:52:13;12.60;99.90
51982;DHT22;37998;53.416;6.730;2022-10-16T03:54:38;12.60;99.90
51982;DHT22;37998;53.416;6.730;2022-10-16T03:57:04;12.60;99.90
51982;DHT22;37998;53.416;6.730;2022-10-16T03:59:30;12.50;99.90
51982;DHT22;37998;53.416;6.730;2022-10-16T04:01:55;12.50;99.90
51982;DHT22;37998;53.416;6.730;2022-10-16T04:04:21;12.50;99.90
51982;DHT22;37998;53.416;6.730;2022-10-16T04:06:46;12.50;99.90
51982;DHT22;37998;53.416;6.730;2022-10-16T04:09:12;12.40;99.90
51982;DHT22;37998;53.416;6.730;2022-10-16T04:11:38;12.40;99.90
51982;DHT22;37998;53.416;6.730;2022-10-16T04:14:04;12.40;99.90
51982;DHT22;37998;53.416;6.730;2022-10-16T04:16:30;12.50;99.90
51982;DHT22;37998;53.416;6.730;2022-10-16T04:18:55;12.30;99.90
51982;DHT22;37998;53.416;6.730;2022-10-16T04:21:21;12.40;99.90
51982;DHT22;37998;53.416;6.730;2022-10-16T04:23:48;12.50;99.90
51982;DHT22;37998;53.416;6.730;2022-10-16T04:26:14;12.40;99.90
51982;DHT22;37998;53.416;6.730;2022-10-16T04:28:40;12.50;99.90
51982;DHT22;37998;53.416;6.730;2022-10-16T04:31:06;12.40;99.90
51982;DHT22;37998;53.416;6.730;2022-10-16T04:33:33;12.50;99.90
51982;DHT22;37998;53.416;6.730;2022-10-16T04:35:59;12.50;99.90
51982;DHT22;37998;53.416;6.730;2022-10-16T04:38:25;12.50;99.90
51982;DHT22;37998;53.416;6.730;2022-10-16T04:40:51;12.50;99.90
51982;DHT22;37998;53.416;6.730;2022-10-16T04:43:17;12.50;99.90
51982;DHT22;37998;53.416;6.730;2022-10-16T04:45:43;12.60;99.90
51982;DHT22;37998;53.416;6.730;2022-10-16T04:48:09;12.50;99.90
51982;DHT22;37998;53.416;6.730;2022-10-16T04:50:35;12.50;99.90
51982;DHT22;37998;53.416;6.730;2022-10-16T04:53:03;12.50;99.90
51982;DHT22;37998;53.416;6.730;2022-10-16T04:55:29;12.50;99.90
51982;DHT22;37998;53.416;6.730;2022-10-16T04:57:54;12.50;99.90
51982;DHT22;37998;53.416;6.730;2022-10-16T05:00:20;12.60;99.90
51982;DHT22;37998;53.416;6.730;2022-10-16T05:02:49;12.60;99.90
51982;DHT22;37998;53.416;6.730;2022-10-16T05:05:14;12.80;99.90
51982;DHT22;37998;53.416;6.730;2022-10-16T05:07:40;12.70;99.90
51982;DHT22;37998;53.416;6.730;2022-10-16T05:10:06;12.70;99.90
51982;DHT22;37998;53.416;6.730;2022-10-16T05:12:32;12.80;99.90
51982;DHT22;37998;53.416;6.730;2022-10-16T05:14:58;12.80;99.90
51982;DHT22;37998;53.416;6.730;2022-10-16T05:17:27;12.70;99.90
51982;DHT22;37998;53.416;6.730;2022-10-16T05:19:52;12.80;99.90
51982;DHT22;37998;53.416;6.730;2022-10-16T05:22:18;12.80;99.90
51982;DHT22;37998;53.416;6.730;2022-10-16T05:24:43;12.80;99.90
51982;DHT22;37998;53.416;6.730;2022-10-16T05:27:10;12.80;99.90
51982;DHT22;37998;53.416;6.730;2022-10-16T05:29:36;12.90;99.90
51982;DHT22;37998;53.416;6.730;2022-10-16T05:32:03;12.80;99.90
51982;DHT22;37998;53.416;6.730;2022-10-16T05:34:28;12.90;99.90
51982;DHT22;37998;53.416;6.730;2022-10-16T05:36:54;12.80;99.90
51982;DHT22;37998;53.416;6.730;2022-10-16T05:39:20;12.90;99.90
51982;DHT22;37998;53.416;6.730;2022-10-16T05:41:45;12.90;99.90
51982;DHT22;37998;53.416;6.730;2022-10-16T05:44:11;12.80;99.90
51982;DHT22;37998;53.416;6.730;2022-10-16T05:46:37;12.90;99.90
51982;DHT22;37998;53.416;6.730;2022-10-16T05:49:03;12.80;99.90
51982;DHT22;37998;53.416;6.730;2022-10-16T05:51:29;12.90;99.90
51982;DHT22;37998;53.416;6.730;2022-10-16T05:53:54;12.80;99.90
51982;DHT22;37998;53.416;6.730;2022-10-16T05:56:20;12.80;99.90
51982;DHT22;37998;53.416;6.730;2022-10-16T05:58:46;12.80;99.90
51982;DHT22;37998;53.416;6.730;2022-10-16T06:01:14;12.80;99.90
51982;DHT22;37998;53.416;6.730;2022-10-16T06:03:40;12.80;99.90
51982;DHT22;37998;53.416;6.730;2022-10-16T06:06:14;12.70;99.90
51982;DHT22;37998;53.416;6.730;2022-10-16T06:08:41;12.70;99.90
51982;DHT22;37998;53.416;6.730;2022-10-16T06:11:10;12.60;99.90
51982;DHT22;37998;53.416;6.730;2022-10-16T06:13:36;12.60;99.90
51982;DHT22;37998;53.416;6.730;2022-10-16T06:16:02;12.60;99.90
51982;DHT22;37998;53.416;6.730;2022-10-16T06:18:29;12.60;99.90
51982;DHT22;37998;53.416;6.730;2022-10-16T06:20:56;12.60;99.90
51982;DHT22;37998;53.416;6.730;2022-10-16T06:23:22;12.50;99.90
51982;DHT22;37998;53.416;6.730;2022-10-16T06:25:48;12.50;99.90
51982;DHT22;37998;53.416;6.730;2022-10-16T06:28:14;12.50;99.90
51982;DHT22;37998;53.416;6.730;2022-10-16T06:30:41;12.50;99.90
51982;DHT22;37998;53.416;6.730;2022-10-16T06:33:08;12.50;99.90
51982;DHT22;37998;53.416;6.730;2022-10-16T06:35:33;12.60;99.90
51982;DHT22;37998;53.416;6.730;2022-10-16T06:37:59;12.60;99.90
51982;DHT22;37998;53.416;6.730;2022-10-16T06:40:25;12.60;99.90
51982;DHT22;37998;53.416;6.730;2022-10-16T06:42:50;12.70;99.90
51982;DHT22;37998;53.416;6.730;2022-10-16T06:45:17;12.70;99.90
51982;DHT22;37998;53.416;6.730;2022-10-16T06:47:43;12.70;99.90
51982;DHT22;37998;53.416;6.730;2022-10-16T06:50:08;12.70;99.90
51982;DHT22;37998;53.416;6.730;2022-10-16T06:52:34;12.80;99.90
51982;DHT22;37998;53.416;6.730;2022-10-16T06:55:00;12.70;99.90
51982;DHT22;37998;53.416;6.730;2022-10-16T06:57:26;12.80;99.90
51982;DHT22;37998;53.416;6.730;2022-10-16T06:59:51;12.80;99.90
51982;DHT22;37998;53.416;6.730;2022-10-16T07:02:17;12.80;99.90
51982;DHT22;37998;53.416;6.730;2022-10-16T07:04:43;12.80;99.90
51982;DHT22;37998;53.416;6.730;2022-10-16T07:07:08;12.80;99.90
51982;DHT22;37998;53.416;6.730;2022-10-16T07:09:34;12.90;99.90
51982;DHT22;37998;53.416;6.730;2022-10-16T07:11:59;12.90;99.90
51982;DHT22;37998;53.416;6.730;2022-10-16T07:14:25;12.90;99.90
51982;DHT22;37998;53.416;6.730;2022-10-16T07:16:51;13.00;99.90
51982;DHT22;37998;53.416;6.730;2022-10-16T07:19:16;12.90;99.90
51982;DHT22;37998;53.416;6.730;2022-10-16T07:21:44;13.00;99.90
51982;DHT22;37998;53.416;6.730;2022-10-16T07:24:14;13.10;99.90
51982;DHT22;37998;53.416;6.730;2022-10-16T07:26:41;13.10;99.90
51982;DHT22;37998;53.416;6.730;2022-10-16T07:29:14;13.10;99.90
51982;DHT22;37998;53.416;6.730;2022-10-16T07:31:41;13.10;99.90
51982;DHT22;37998;53.416;6.730;2022-10-16T07:34:07;13.20;99.90
51982;DHT22;37998;53.416;6.730;2022-10-16T07:36:33;13.20;99.90
51982;DHT22;37998;53.416;6.730;2022-10-16T07:38:59;13.20;99.90
51982;DHT22;37998;53.416;6.730;2022-10-16T07:41:25;13.20;99.90
51982;DHT22;37998;53.416;6.730;2022-10-16T07:43:52;13.20;99.90
51982;DHT22;37998;53.416;6.730;2022-10-16T07:46:19;13.20;99.90
51982;DHT22;37998;53.416;6.730;2022-10-16T07:48:45;13.20;99.90
51982;DHT22;37998;53.416;6.730;2022-10-16T07:51:13;13.30;99.90
51982;DHT22;37998;53.416;6.730;2022-10-16T07:53:39;13.30;99.90
51982;DHT22;37998;53.416;6.730;2022-10-16T07:56:06;13.20;99.90
51982;DHT22;37998;53.416;6.730;2022-10-16T07:58:33;13.20;99.90
51982;DHT22;37998;53.416;6.730;2022-10-16T08:01:07;13.30;99.90
51982;DHT22;37998;53.416;6.730;2022-10-16T08:03:33;13.40;99.90
51982;DHT22;37998;53.416;6.730;2022-10-16T08:06:00;13.40;99.90
51982;DHT22;37998;53.416;6.730;2022-10-16T08:08:27;13.50;99.90
51982;DHT22;37998;53.416;6.730;2022-10-16T08:10:53;13.70;99.90
51982;DHT22;37998;53.416;6.730;2022-10-16T08:13:19;13.70;99.90
51982;DHT22;37998;53.416;6.730;2022-10-16T08:15:45;13.70;99.90
51982;DHT22;37998;53.416;6.730;2022-10-16T08:18:12;13.70;99.90
51982;DHT22;37998;53.416;6.730;2022-10-16T08:20:39;13.80;99.90
51982;DHT22;37998;53.416;6.730;2022-10-16T08:23:05;13.90;99.90
51982;DHT22;37998;53.416;6.730;2022-10-16T08:25:31;13.40;99.90
51982;DHT22;37998;53.416;6.730;2022-10-16T08:27:56;14.00;99.90
51982;DHT22;37998;53.416;6.730;2022-10-16T08:30:24;14.00;99.90
51982;DHT22;37998;53.416;6.730;2022-10-16T08:32:49;14.00;99.90
51982;DHT22;37998;53.416;6.730;2022-10-16T08:35:16;13.90;99.90
51982;DHT22;37998;53.416;6.730;2022-10-16T08:37:42;13.90;99.90
51982;DHT22;37998;53.416;6.730;2022-10-16T08:40:24;13.90;99.90
51982;DHT22;37998;53.416;6.730;2022-10-16T08:48:14;14.30;99.90
51982;DHT22;37998;53.416;6.730;2022-10-16T08:50:42;14.40;99.90
51982;DHT22;37998;53.416;6.730;2022-10-16T08:53:15;14.50;99.90
51982;DHT22;37998;53.416;6.730;2022-10-16T08:55:54;14.50;99.90
51982;DHT22;37998;53.416;6.730;2022-10-16T08:58:27;14.50;99.90
51982;DHT22;37998;53.416;6.730;2022-10-16T09:00:54;14.60;99.90
51982;DHT22;37998;53.416;6.730;2022-10-16T09:09:00;14.80;99.90
51982;DHT22;37998;53.416;6.730;2022-10-16T09:14:47;14.80;99.90
51982;DHT22;37998;53.416;6.730;2022-10-16T09:20:29;14.80;99.90
51982;DHT22;37998;53.416;6.730;2022-10-16T09:25:43;14.70;99.90
51982;DHT22;37998;53.416;6.730;2022-10-16T09:28:10;14.70;99.90
51982;DHT22;37998;53.416;6.730;2022-10-16T09:30:36;14.60;99.90
51982;DHT22;37998;53.416;6.730;2022-10-16T09:33:03;14.80;99.90
51982;DHT22;37998;53.416;6.730;2022-10-16T09:35:40;14.80;99.90
51982;DHT22;37998;53.416;6.730;2022-10-16T09:38:07;14.90;99.90
51982;DHT22;37998;53.416;6.730;2022-10-16T09:40:36;15.00;99.90
51982;DHT22;37998;53.416;6.730;2022-10-16T09:43:26;15.10;99.90
51982;DHT22;37998;53.416;6.730;2022-10-16T09:48:58;15.30;99.90
51982;DHT22;37998;53.416;6.730;2022-10-16T09:51:32;15.30;99.90
51982;DHT22;37998;53.416;6.730;2022-10-16T09:54:00;15.40;99.90
51982;DHT22;37998;53.416;6.730;2022-10-16T09:56:32;15.50;99.90
51982;DHT22;37998;53.416;6.730;2022-10-16T09:59:00;15.60;99.90
51982;DHT22;37998;53.416;6.730;2022-10-16T10:01:40;15.70;99.90
51982;DHT22;37998;53.416;6.730;2022-10-16T10:04:07;15.80;99.90
51982;DHT22;37998;53.416;6.730;2022-10-16T10:06:36;15.90;99.90
51982;DHT22;37998;53.416;6.730;2022-10-16T10:11:47;16.10;99.90
51982;DHT22;37998;53.416;6.730;2022-10-16T10:14:37;16.20;99.90
51982;DHT22;37998;53.416;6.730;2022-10-16T10:46:50;16.80;99.90
51982;DHT22;37998;53.416;6.730;2022-10-16T10:54:53;17.10;99.90
51982;DHT22;37998;53.416;6.730;2022-10-16T10:57:28;17.10;99.90
51982;DHT22;37998;53.416;6.730;2022-10-16T10:59:57;17.10;99.90
51982;DHT22;37998;53.416;6.730;2022-10-16T11:02:39;17.10;99.90
51982;DHT22;37998;53.416;6.730;2022-10-16T11:07:58;17.00;99.90
51982;DHT22;37998;53.416;6.730;2022-10-16T11:10:50;16.80;99.90
51982;DHT22;37998;53.416;6.730;2022-10-16T11:16:30;16.80;99.90
51982;DHT22;37998;53.416;6.730;2022-10-16T11:19:14;16.90;99.90
51982;DHT22;37998;53.416;6.730;2022-10-16T11:21:51;16.90;99.90
51982;DHT22;37998;53.416;6.730;2022-10-16T11:24:34;16.90;99.90
51982;DHT22;37998;53.416;6.730;2022-10-16T11:27:05;16.90;99.90
51982;DHT22;37998;53.416;6.730;2022-10-16T11:29:33;16.80;99.90
51982;DHT22;37998;53.416;6.730;2022-10-16T11:32:06;16.70;99.90
51982;DHT22;37998;53.416;6.730;2022-10-16T11:34:45;16.60;99.90
51982;DHT22;37998;53.416;6.730;2022-10-16T11:37:19;16.50;99.90
51982;DHT22;37998;53.416;6.730;2022-10-16T11:39:45;16.30;99.90
51982;DHT22;37998;53.416;6.730;2022-10-16T11:42:37;16.10;99.90
51982;DHT22;37998;53.416;6.730;2022-10-16T11:47:45;16.20;99.90
51982;DHT22;37998;53.416;6.730;2022-10-16T11:50:35;16.20;99.90
51982;DHT22;37998;53.416;6.730;2022-10-16T11:55:47;16.20;99.90
51982;DHT22;37998;53.416;6.730;2022-10-16T11:58:38;16.10;99.90
51982;DHT22;37998;53.416;6.730;2022-10-16T12:01:40;16.00;99.90
51982;DHT22;37998;53.416;6.730;2022-10-16T12:09:30;16.10;99.90
51982;DHT22;37998;53.416;6.730;2022-10-16T12:11:57;16.30;99.90
51982;DHT22;37998;53.416;6.730;2022-10-16T12:17:00;16.50;99.90
51982;DHT22;37998;53.416;6.730;2022-10-16T12:19:28;16.70;99.90
51982;DHT22;37998;53.416;6.730;2022-10-16T12:21:57;16.80;99.90
51982;DHT22;37998;53.416;6.730;2022-10-16T12:24:38;16.80;99.90
51982;DHT22;37998;53.416;6.730;2022-10-16T12:27:17;16.90;99.90
51982;DHT22;37998;53.416;6.730;2022-10-16T12:29:45;16.90;99.90
51982;DHT22;37998;53.416;6.730;2022-10-16T12:32:37;17.00;99.90
51982;DHT22;37998;53.416;6.730;2022-10-16T12:35:18;16.90;99.90
51982;DHT22;37998;53.416;6.730;2022-10-16T12:37:45;16.80;99.90
51982;DHT22;37998;53.416;6.730;2022-10-16T12:40:34;16.80;99.90
51982;DHT22;37998;53.416;6.730;2022-10-16T12:42:59;16.80;99.90
51982;DHT22;37998;53.416;6.730;2022-10-16T12:45:28;16.80;99.90
51982;DHT22;37998;53.416;6.730;2022-10-16T12:47:55;16.80;99.90
51982;DHT22;37998;53.416;6.730;2022-10-16T12:52:56;16.80;99.90
51982;DHT22;37998;53.416;6.730;2022-10-16T12:55:22;16.80;99.90
51982;DHT22;37998;53.416;6.730;2022-10-16T12:58:11;16.70;99.90
51982;DHT22;37998;53.416;6.730;2022-10-16T13:04:13;16.70;99.90
51982;DHT22;37998;53.416;6.730;2022-10-16T13:06:51;16.70;99.90
51982;DHT22;37998;53.416;6.730;2022-10-16T13:20:18;16.70;99.90
51982;DHT22;37998;53.416;6.730;2022-10-16T13:23:22;16.70;99.60
51982;DHT22;37998;53.416;6.730;2022-10-16T13:28:18;16.60;99.90
51982;DHT22;37998;53.416;6.730;2022-10-16T13:30:54;16.60;99.90
51982;DHT22;37998;53.416;6.730;2022-10-16T13:33:34;16.60;99.90
51982;DHT22;37998;53.416;6.730;2022-10-16T13:36:01;16.60;99.90
51982;DHT22;37998;53.416;6.730;2022-10-16T13:38:32;16.60;99.90
51982;DHT22;37998;53.416;6.730;2022-10-16T13:41:12;16.60;99.90
51982;DHT22;37998;53.416;6.730;2022-10-16T13:43:43;16.60;99.90
51982;DHT22;37998;53.416;6.730;2022-10-16T13:48:41;16.50;99.90
51982;DHT22;37998;53.416;6.730;2022-10-16T13:51:17;16.50;99.90
51982;DHT22;37998;53.416;6.730;2022-10-16T13:53:45;16.40;99.90
51982;DHT22;37998;53.416;6.730;2022-10-16T13:56:13;16.40;99.90
51982;DHT22;37998;53.416;6.730;2022-10-16T13:58:40;16.40;99.90
51982;DHT22;37998;53.416;6.730;2022-10-16T14:01:19;16.30;99.90
51982;DHT22;37998;53.416;6.730;2022-10-16T14:03:46;16.30;99.90
51982;DHT22;37998;53.416;6.730;2022-10-16T14:06:15;16.20;99.90
51982;DHT22;37998;53.416;6.730;2022-10-16T14:08:46;16.20;99.90
51982;DHT22;37998;53.416;6.730;2022-10-16T14:11:13;16.30;99.90
51982;DHT22;37998;53.416;6.730;2022-10-16T14:13:43;16.20;99.90
51982;DHT22;37998;53.416;6.730;2022-10-16T14:16:15;16.20;99.90
51982;DHT22;37998;53.416;6.730;2022-10-16T14:18:45;16.20;99.90
51982;DHT22;37998;53.416;6.730;2022-10-16T14:21:13;16.20;99.90
51982;DHT22;37998;53.416;6.730;2022-10-16T14:23:41;16.20;99.90
51982;DHT22;37998;53.416;6.730;2022-10-16T14:28:37;16.10;99.90
51982;DHT22;37998;53.416;6.730;2022-10-16T14:31:25;16.10;99.90
51982;DHT22;37998;53.416;6.730;2022-10-16T14:33:51;16.10;99.90
51982;DHT22;37998;53.416;6.730;2022-10-16T14:36:17;16.00;99.90
51982;DHT22;37998;53.416;6.730;2022-10-16T14:39:03;16.00;99.90
51982;DHT22;37998;53.416;6.730;2022-10-16T14:41:31;16.10;99.90
51982;DHT22;37998;53.416;6.730;2022-10-16T14:44:01;16.10;99.90
51982;DHT22;37998;53.416;6.730;2022-10-16T14:46:39;16.00;99.90
51982;DHT22;37998;53.416;6.730;2022-10-16T14:49:16;16.00;99.90
51982;DHT22;37998;53.416;6.730;2022-10-16T14:51:43;16.90;99.90
51982;DHT22;37998;53.416;6.730;2022-10-16T14:54:14;15.90;99.90
51982;DHT22;37998;53.416;6.730;2022-10-16T14:56:56;15.90;99.90
51982;DHT22;37998;53.416;6.730;2022-10-16T14:59:30;15.90;99.90
51982;DHT22;37998;53.416;6.730;2022-10-16T15:01:56;15.80;99.90
51982;DHT22;37998;53.416;6.730;2022-10-16T15:04:22;15.80;99.90
51982;DHT22;37998;53.416;6.730;2022-10-16T15:06:48;15.70;99.90
51982;DHT22;37998;53.416;6.730;2022-10-16T15:09:14;15.70;99.90
51982;DHT22;37998;53.416;6.730;2022-10-16T15:11:40;15.60;99.90
51982;DHT22;37998;53.416;6.730;2022-10-16T15:14:12;15.60;99.90
51982;DHT22;37998;53.416;6.730;2022-10-16T15:16:38;15.60;99.90
51982;DHT22;37998;53.416;6.730;2022-10-16T15:19:04;15.40;99.90
51982;DHT22;37998;53.416;6.730;2022-10-16T15:21:31;15.50;99.90
51982;DHT22;37998;53.416;6.730;2022-10-16T15:23:58;15.40;99.90
51982;DHT22;37998;53.416;6.730;2022-10-16T15:26:29;15.40;99.90
51982;DHT22;37998;53.416;6.730;2022-10-16T15:28:55;15.30;99.90
51982;DHT22;37998;53.416;6.730;2022-10-16T15:31:21;15.30;99.90
51982;DHT22;37998;53.416;6.730;2022-10-16T15:33:53;15.30;99.90
51982;DHT22;37998;53.416;6.730;2022-10-16T15:36:28;15.30;99.90
51982;DHT22;37998;53.416;6.730;2022-10-16T15:38:55;15.20;99.90
51982;DHT22;37998;53.416;6.730;2022-10-16T15:41:21;15.20;99.90
51982;DHT22;37998;53.416;6.730;2022-10-16T15:43:50;15.20;99.90
51982;DHT22;37998;53.416;6.730;2022-10-16T15:46:19;15.10;99.90
51982;DHT22;37998;53.416;6.730;2022-10-16T15:48:44;15.10;99.90
51982;DHT22;37998;53.416;6.730;2022-10-16T15:51:10;15.10;99.90
51982;DHT22;37998;53.416;6.730;2022-10-16T15:53:36;15.00;99.90
51982;DHT22;37998;53.416;6.730;2022-10-16T15:56:03;15.00;99.90
51982;DHT22;37998;53.416;6.730;2022-10-16T15:58:29;15.00;99.90
51982;DHT22;37998;53.416;6.730;2022-10-16T16:00:56;14.90;99.90
51982;DHT22;37998;53.416;6.730;2022-10-16T16:03:22;14.90;99.90
51982;DHT22;37998;53.416;6.730;2022-10-16T16:05:48;14.90;99.90
51982;DHT22;37998;53.416;6.730;2022-10-16T16:08:13;14.90;99.90
51982;DHT22;37998;53.416;6.730;2022-10-16T16:10:39;14.80;99.90
51982;DHT22;37998;53.416;6.730;2022-10-16T16:13:04;14.80;99.90
51982;DHT22;37998;53.416;6.730;2022-10-16T16:15:30;14.80;99.90
51982;DHT22;37998;53.416;6.730;2022-10-16T16:17:56;14.80;99.90
51982;DHT22;37998;53.416;6.730;2022-10-16T16:20:21;14.80;99.90
51982;DHT22;37998;53.416;6.730;2022-10-16T16:22:47;14.70;99.90
51982;DHT22;37998;53.416;6.730;2022-10-16T16:25:13;14.70;99.90
51982;DHT22;37998;53.416;6.730;2022-10-16T16:27:38;14.60;99.90
51982;DHT22;37998;53.416;6.730;2022-10-16T16:30:06;14.50;99.90
51982;DHT22;37998;53.416;6.730;2022-10-16T16:32:33;14.50;99.90
51982;DHT22;37998;53.416;6.730;2022-10-16T16:35:00;14.40;99.90
51982;DHT22;37998;53.416;6.730;2022-10-16T16:37:25;14.40;99.90
51982;DHT22;37998;53.416;6.730;2022-10-16T16:39:51;14.50;99.90
51982;DHT22;37998;53.416;6.730;2022-10-16T16:42:16;13.80;99.90
51982;DHT22;37998;53.416;6.730;2022-10-16T16:44:42;14.40;99.90
51982;DHT22;37998;53.416;6.730;2022-10-16T16:47:09;14.30;99.90
51982;DHT22;37998;53.416;6.730;2022-10-16T16:49:35;14.30;99.90
51982;DHT22;37998;53.416;6.730;2022-10-16T16:52:01;14.20;99.90
51982;DHT22;37998;53.416;6.730;2022-10-16T16:54:26;14.10;99.90
51982;DHT22;37998;53.416;6.730;2022-10-16T16:56:52;14.10;99.90
51982;DHT22;37998;53.416;6.730;2022-10-16T16:59:19;14.00;99.90
51982;DHT22;37998;53.416;6.730;2022-10-16T17:01:45;14.00;99.90
51982;DHT22;37998;53.416;6.730;2022-10-16T17:04:12;14.00;99.90
51982;DHT22;37998;53.416;6.730;2022-10-16T17:06:41;14.00;99.90
51982;DHT22;37998;53.416;6.730;2022-10-16T17:09:07;14.00;99.90
51982;DHT22;37998;53.416;6.730;2022-10-16T17:11:33;14.00;99.90
51982;DHT22;37998;53.416;6.730;2022-10-16T17:14:00;14.00;99.90
51982;DHT22;37998;53.416;6.730;2022-10-16T17:16:29;14.10;99.90
51982;DHT22;37998;53.416;6.730;2022-10-16T17:18:55;14.00;99.90
51982;DHT22;37998;53.416;6.730;2022-10-16T17:21:23;14.00;99.90
51982;DHT22;37998;53.416;6.730;2022-10-16T17:23:51;14.10;99.90
51982;DHT22;37998;53.416;6.730;2022-10-16T17:26:18;14.00;99.90
51982;DHT22;37998;53.416;6.730;2022-10-16T17:28:44;14.00;99.90
51982;DHT22;37998;53.416;6.730;2022-10-16T17:31:15;13.90;99.90
51982;DHT22;37998;53.416;6.730;2022-10-16T17:33:42;14.00;99.90
51982;DHT22;37998;53.416;6.730;2022-10-16T17:36:08;13.90;99.90
51982;DHT22;37998;53.416;6.730;2022-10-16T17:38:34;13.90;99.90
51982;DHT22;37998;53.416;6.730;2022-10-16T17:41:17;13.90;99.90